< < Back
Terminal Aerodrome Forecast


Current Version              Previous Versions:   1  2  3  4  5  6  7  8  9  

Terminal Aerodrome Forecast

481
FTUS42 KGSP 272323
TAFHKY
TAF
KHKY 272323Z 2800/2824 18005KT P6SM SCT250
     FM280800 18003KT P6SM FEW250
     FM281900 12006KT P6SM FEW050 SCT150=

Latest METAR

925
SAUS70 KWBC 290200 RRA
MTRHKY
METAR KHKY 290153Z 00000KT 10SM CLR 23/14 A3016 RMK AO2 SLP191
T02280139


USA.gov is the U.S. government's official web portal to all federal, state and local government web resources and services.